sensor_id;sensor_type;location;lat;lon;timestamp;P1;durP1;ratioP1;P2;durP2;ratioP2
55633;SDS011;41504;53.162;6.788;2022-10-16T00:01:19;5.47;;;1.83;;
55633;SDS011;41504;53.162;6.788;2022-10-16T00:03:47;5.57;;;2.20;;
55633;SDS011;41504;53.162;6.788;2022-10-16T00:06:17;9.55;;;2.67;;
55633;SDS011;41504;53.162;6.788;2022-10-16T00:08:47;6.15;;;2.30;;
55633;SDS011;41504;53.162;6.788;2022-10-16T00:11:17;7.20;;;2.35;;
55633;SDS011;41504;53.162;6.788;2022-10-16T00:13:45;7.63;;;2.72;;
55633;SDS011;41504;53.162;6.788;2022-10-16T00:16:13;8.25;;;2.35;;
55633;SDS011;41504;53.162;6.788;2022-10-16T00:18:39;6.70;;;2.47;;
55633;SDS011;41504;53.162;6.788;2022-10-16T00:21:07;7.95;;;2.67;;
55633;SDS011;41504;53.162;6.788;2022-10-16T00:23:38;5.43;;;1.93;;
55633;SDS011;41504;53.162;6.788;2022-10-16T00:26:06;9.27;;;2.40;;
55633;SDS011;41504;53.162;6.788;2022-10-16T00:28:37;8.38;;;2.42;;
55633;SDS011;41504;53.162;6.788;2022-10-16T00:31:06;7.53;;;2.05;;
55633;SDS011;41504;53.162;6.788;2022-10-16T00:33:34;7.32;;;2.45;;
55633;SDS011;41504;53.162;6.788;2022-10-16T00:36:02;8.00;;;2.15;;
55633;SDS011;41504;53.162;6.788;2022-10-16T00:38:28;7.18;;;2.15;;
55633;SDS011;41504;53.162;6.788;2022-10-16T00:40:54;8.25;;;2.30;;
55633;SDS011;41504;53.162;6.788;2022-10-16T00:49:10;6.85;;;2.22;;
55633;SDS011;41504;53.162;6.788;2022-10-16T00:51:39;7.70;;;2.42;;
55633;SDS011;41504;53.162;6.788;2022-10-16T00:54:14;7.13;;;2.30;;
55633;SDS011;41504;53.162;6.788;2022-10-16T00:56:44;6.28;;;2.30;;
55633;SDS011;41504;53.162;6.788;2022-10-16T00:59:18;7.68;;;2.20;;
55633;SDS011;41504;53.162;6.788;2022-10-16T01:04:20;5.90;;;2.05;;
55633;SDS011;41504;53.162;6.788;2022-10-16T01:10:12;7.10;;;2.00;;
55633;SDS011;41504;53.162;6.788;2022-10-16T01:12:39;7.22;;;2.13;;
55633;SDS011;41504;53.162;6.788;2022-10-16T01:17:46;5.32;;;2.00;;
55633;SDS011;41504;53.162;6.788;2022-10-16T01:20:32;13.13;;;2.30;;
55633;SDS011;41504;53.162;6.788;2022-10-16T01:28:17;8.38;;;2.15;;
55633;SDS011;41504;53.162;6.788;2022-10-16T01:30:46;5.78;;;2.13;;
55633;SDS011;41504;53.162;6.788;2022-10-16T01:33:17;6.68;;;2.15;;
55633;SDS011;41504;53.162;6.788;2022-10-16T01:35:58;6.47;;;1.90;;
55633;SDS011;41504;53.162;6.788;2022-10-16T01:38:29;8.30;;;2.03;;
55633;SDS011;41504;53.162;6.788;2022-10-16T01:41:10;14.40;;;2.63;;
55633;SDS011;41504;53.162;6.788;2022-10-16T01:43:41;9.77;;;2.20;;
55633;SDS011;41504;53.162;6.788;2022-10-16T01:46:10;4.68;;;1.92;;
55633;SDS011;41504;53.162;6.788;2022-10-16T01:48:40;7.18;;;2.30;;
55633;SDS011;41504;53.162;6.788;2022-10-16T01:51:08;10.25;;;2.38;;
55633;SDS011;41504;53.162;6.788;2022-10-16T01:53:36;9.50;;;2.47;;
55633;SDS011;41504;53.162;6.788;2022-10-16T01:56:04;5.25;;;2.17;;
55633;SDS011;41504;53.162;6.788;2022-10-16T01:58:35;6.13;;;2.10;;
55633;SDS011;41504;53.162;6.788;2022-10-16T02:01:14;6.07;;;1.98;;
55633;SDS011;41504;53.162;6.788;2022-10-16T02:03:43;7.50;;;2.05;;
55633;SDS011;41504;53.162;6.788;2022-10-16T02:06:11;9.85;;;2.50;;
55633;SDS011;41504;53.162;6.788;2022-10-16T02:08:37;8.95;;;2.28;;
55633;SDS011;41504;53.162;6.788;2022-10-16T02:11:05;7.22;;;2.10;;
55633;SDS011;41504;53.162;6.788;2022-10-16T02:13:38;6.40;;;2.08;;
55633;SDS011;41504;53.162;6.788;2022-10-16T02:16:18;5.80;;;2.20;;
55633;SDS011;41504;53.162;6.788;2022-10-16T02:18:44;4.43;;;1.90;;
55633;SDS011;41504;53.162;6.788;2022-10-16T02:21:14;6.10;;;2.03;;
55633;SDS011;41504;53.162;6.788;2022-10-16T02:26:24;6.15;;;2.42;;
55633;SDS011;41504;53.162;6.788;2022-10-16T02:28:57;7.47;;;2.20;;
55633;SDS011;41504;53.162;6.788;2022-10-16T02:31:27;5.97;;;1.90;;
55633;SDS011;41504;53.162;6.788;2022-10-16T02:33:57;6.28;;;2.00;;
55633;SDS011;41504;53.162;6.788;2022-10-16T02:36:30;9.13;;;2.10;;
55633;SDS011;41504;53.162;6.788;2022-10-16T02:38:57;6.45;;;2.00;;
55633;SDS011;41504;53.162;6.788;2022-10-16T02:41:25;5.18;;;2.03;;
55633;SDS011;41504;53.162;6.788;2022-10-16T02:43:52;6.82;;;2.08;;
55633;SDS011;41504;53.162;6.788;2022-10-16T02:46:19;6.88;;;1.90;;
55633;SDS011;41504;53.162;6.788;2022-10-16T02:48:46;7.05;;;2.10;;
55633;SDS011;41504;53.162;6.788;2022-10-16T02:51:11;6.90;;;1.92;;
55633;SDS011;41504;53.162;6.788;2022-10-16T02:53:37;4.78;;;1.92;;
55633;SDS011;41504;53.162;6.788;2022-10-16T02:56:03;4.57;;;2.13;;
55633;SDS011;41504;53.162;6.788;2022-10-16T02:58:29;5.43;;;2.10;;
55633;SDS011;41504;53.162;6.788;2022-10-16T03:00:54;5.68;;;2.10;;
55633;SDS011;41504;53.162;6.788;2022-10-16T03:03:20;7.50;;;2.28;;
55633;SDS011;41504;53.162;6.788;2022-10-16T03:05:46;6.45;;;2.10;;
55633;SDS011;41504;53.162;6.788;2022-10-16T03:08:12;6.70;;;2.22;;
55633;SDS011;41504;53.162;6.788;2022-10-16T03:10:38;4.95;;;2.35;;
55633;SDS011;41504;53.162;6.788;2022-10-16T03:13:04;4.90;;;2.10;;
55633;SDS011;41504;53.162;6.788;2022-10-16T03:15:30;5.20;;;2.20;;
55633;SDS011;41504;53.162;6.788;2022-10-16T03:17:58;5.63;;;2.67;;
55633;SDS011;41504;53.162;6.788;2022-10-16T03:20:25;4.90;;;2.05;;
55633;SDS011;41504;53.162;6.788;2022-10-16T03:22:51;4.78;;;2.22;;
55633;SDS011;41504;53.162;6.788;2022-10-16T03:25:17;6.95;;;2.60;;
55633;SDS011;41504;53.162;6.788;2022-10-16T03:27:43;6.18;;;2.10;;
55633;SDS011;41504;53.162;6.788;2022-10-16T03:30:09;5.00;;;2.08;;
55633;SDS011;41504;53.162;6.788;2022-10-16T03:32:37;4.80;;;2.00;;
55633;SDS011;41504;53.162;6.788;2022-10-16T03:35:02;7.30;;;2.50;;
55633;SDS011;41504;53.162;6.788;2022-10-16T03:37:29;6.00;;;2.38;;
55633;SDS011;41504;53.162;6.788;2022-10-16T03:39:55;6.72;;;2.20;;
55633;SDS011;41504;53.162;6.788;2022-10-16T03:42:20;5.30;;;2.20;;
55633;SDS011;41504;53.162;6.788;2022-10-16T03:44:46;4.03;;;2.00;;
55633;SDS011;41504;53.162;6.788;2022-10-16T03:47:12;8.60;;;2.20;;
55633;SDS011;41504;53.162;6.788;2022-10-16T03:49:37;6.85;;;2.20;;
55633;SDS011;41504;53.162;6.788;2022-10-16T03:52:03;6.15;;;2.47;;
55633;SDS011;41504;53.162;6.788;2022-10-16T03:54:29;5.97;;;2.15;;
55633;SDS011;41504;53.162;6.788;2022-10-16T03:56:54;5.70;;;2.15;;
55633;SDS011;41504;53.162;6.788;2022-10-16T03:59:20;6.10;;;2.40;;
55633;SDS011;41504;53.162;6.788;2022-10-16T04:01:46;5.05;;;2.17;;
55633;SDS011;41504;53.162;6.788;2022-10-16T04:04:11;6.28;;;2.65;;
55633;SDS011;41504;53.162;6.788;2022-10-16T04:06:37;5.50;;;2.30;;
55633;SDS011;41504;53.162;6.788;2022-10-16T04:09:03;5.50;;;2.45;;
55633;SDS011;41504;53.162;6.788;2022-10-16T04:11:28;5.30;;;2.50;;
55633;SDS011;41504;53.162;6.788;2022-10-16T04:13:54;6.53;;;2.17;;
55633;SDS011;41504;53.162;6.788;2022-10-16T04:16:20;4.63;;;2.00;;
55633;SDS011;41504;53.162;6.788;2022-10-16T04:18:46;7.88;;;2.35;;
55633;SDS011;41504;53.162;6.788;2022-10-16T04:21:11;5.53;;;2.10;;
55633;SDS011;41504;53.162;6.788;2022-10-16T04:23:37;4.78;;;2.10;;
55633;SDS011;41504;53.162;6.788;2022-10-16T04:26:03;4.82;;;1.90;;
55633;SDS011;41504;53.162;6.788;2022-10-16T04:28:29;5.43;;;2.17;;
55633;SDS011;41504;53.162;6.788;2022-10-16T04:30:55;3.92;;;2.10;;
55633;SDS011;41504;53.162;6.788;2022-10-16T04:33:21;6.50;;;2.33;;
55633;SDS011;41504;53.162;6.788;2022-10-16T04:35:47;4.95;;;2.17;;
55633;SDS011;41504;53.162;6.788;2022-10-16T04:38:12;6.32;;;2.25;;
55633;SDS011;41504;53.162;6.788;2022-10-16T04:40:38;4.57;;;2.20;;
55633;SDS011;41504;53.162;6.788;2022-10-16T04:43:04;4.88;;;2.20;;
55633;SDS011;41504;53.162;6.788;2022-10-16T04:45:30;5.20;;;2.38;;
55633;SDS011;41504;53.162;6.788;2022-10-16T04:47:57;6.43;;;2.10;;
55633;SDS011;41504;53.162;6.788;2022-10-16T04:50:23;6.35;;;2.58;;
55633;SDS011;41504;53.162;6.788;2022-10-16T04:52:49;5.75;;;2.10;;
55633;SDS011;41504;53.162;6.788;2022-10-16T04:55:15;5.03;;;2.30;;
55633;SDS011;41504;53.162;6.788;2022-10-16T04:57:40;6.18;;;2.38;;
55633;SDS011;41504;53.162;6.788;2022-10-16T05:00:06;6.28;;;2.53;;
55633;SDS011;41504;53.162;6.788;2022-10-16T05:02:33;5.97;;;2.40;;
55633;SDS011;41504;53.162;6.788;2022-10-16T05:04:59;5.50;;;2.47;;
55633;SDS011;41504;53.162;6.788;2022-10-16T05:07:25;4.07;;;2.22;;
55633;SDS011;41504;53.162;6.788;2022-10-16T05:09:50;4.85;;;2.40;;
55633;SDS011;41504;53.162;6.788;2022-10-16T05:12:16;6.07;;;2.30;;
55633;SDS011;41504;53.162;6.788;2022-10-16T05:14:42;8.10;;;2.90;;
55633;SDS011;41504;53.162;6.788;2022-10-16T05:17:07;5.40;;;2.25;;
55633;SDS011;41504;53.162;6.788;2022-10-16T05:19:33;7.30;;;2.50;;
55633;SDS011;41504;53.162;6.788;2022-10-16T05:21:59;5.18;;;2.33;;
55633;SDS011;41504;53.162;6.788;2022-10-16T05:24:25;4.63;;;2.40;;
55633;SDS011;41504;53.162;6.788;2022-10-16T05:26:52;5.30;;;2.47;;
55633;SDS011;41504;53.162;6.788;2022-10-16T05:29:18;5.63;;;2.42;;
55633;SDS011;41504;53.162;6.788;2022-10-16T05:31:44;4.35;;;2.20;;
55633;SDS011;41504;53.162;6.788;2022-10-16T05:34:10;8.18;;;2.95;;
55633;SDS011;41504;53.162;6.788;2022-10-16T05:36:36;8.55;;;2.70;;
55633;SDS011;41504;53.162;6.788;2022-10-16T05:39:02;7.22;;;2.80;;
55633;SDS011;41504;53.162;6.788;2022-10-16T05:41:28;7.07;;;2.53;;
55633;SDS011;41504;53.162;6.788;2022-10-16T05:43:54;6.43;;;2.33;;
55633;SDS011;41504;53.162;6.788;2022-10-16T05:46:20;6.88;;;2.67;;
55633;SDS011;41504;53.162;6.788;2022-10-16T05:48:45;5.50;;;2.47;;
55633;SDS011;41504;53.162;6.788;2022-10-16T05:51:12;7.75;;;2.63;;
55633;SDS011;41504;53.162;6.788;2022-10-16T05:53:39;5.75;;;2.35;;
55633;SDS011;41504;53.162;6.788;2022-10-16T05:56:09;8.45;;;2.83;;
55633;SDS011;41504;53.162;6.788;2022-10-16T05:58:36;5.00;;;2.70;;
55633;SDS011;41504;53.162;6.788;2022-10-16T17:12:32;12.98;;;5.57;;
55633;SDS011;41504;53.162;6.788;2022-10-16T17:14:58;12.98;;;4.97;;
55633;SDS011;41504;53.162;6.788;2022-10-16T17:17:24;13.38;;;5.60;;
55633;SDS011;41504;53.162;6.788;2022-10-16T17:19:50;11.73;;;3.97;;
55633;SDS011;41504;53.162;6.788;2022-10-16T17:22:16;12.90;;;3.97;;
55633;SDS011;41504;53.162;6.788;2022-10-16T17:24:43;12.43;;;4.10;;
55633;SDS011;41504;53.162;6.788;2022-10-16T17:27:08;11.55;;;3.75;;
55633;SDS011;41504;53.162;6.788;2022-10-16T17:29:36;10.18;;;4.25;;
55633;SDS011;41504;53.162;6.788;2022-10-16T17:32:02;12.80;;;4.68;;
55633;SDS011;41504;53.162;6.788;2022-10-16T17:34:28;15.05;;;6.38;;
55633;SDS011;41504;53.162;6.788;2022-10-16T17:36:54;12.35;;;5.55;;
55633;SDS011;41504;53.162;6.788;2022-10-16T17:39:20;10.82;;;4.72;;
55633;SDS011;41504;53.162;6.788;2022-10-16T17:41:47;12.50;;;4.82;;
55633;SDS011;41504;53.162;6.788;2022-10-16T17:44:14;11.23;;;4.13;;
55633;SDS011;41504;53.162;6.788;2022-10-16T17:46:48;14.40;;;4.88;;
55633;SDS011;41504;53.162;6.788;2022-10-16T17:49:15;11.13;;;4.85;;
55633;SDS011;41504;53.162;6.788;2022-10-16T17:51:41;11.55;;;4.80;;
55633;SDS011;41504;53.162;6.788;2022-10-16T17:54:07;12.68;;;5.05;;
55633;SDS011;41504;53.162;6.788;2022-10-16T17:56:33;10.18;;;4.55;;
55633;SDS011;41504;53.162;6.788;2022-10-16T17:59:00;11.45;;;4.78;;
55633;SDS011;41504;53.162;6.788;2022-10-16T18:01:32;11.52;;;4.85;;
55633;SDS011;41504;53.162;6.788;2022-10-16T18:04:01;9.77;;;5.10;;
55633;SDS011;41504;53.162;6.788;2022-10-16T18:06:29;14.05;;;6.05;;
55633;SDS011;41504;53.162;6.788;2022-10-16T18:08:56;11.18;;;6.45;;
55633;SDS011;41504;53.162;6.788;2022-10-16T18:11:22;14.65;;;7.05;;
55633;SDS011;41504;53.162;6.788;2022-10-16T18:13:53;11.57;;;5.30;;
55633;SDS011;41504;53.162;6.788;2022-10-16T18:16:23;11.20;;;4.90;;
55633;SDS011;41504;53.162;6.788;2022-10-16T18:18:54;10.88;;;4.65;;
55633;SDS011;41504;53.162;6.788;2022-10-16T18:21:24;14.90;;;5.00;;
55633;SDS011;41504;53.162;6.788;2022-10-16T18:23:54;10.07;;;5.10;;
55633;SDS011;41504;53.162;6.788;2022-10-16T18:26:21;11.65;;;5.55;;
55633;SDS011;41504;53.162;6.788;2022-10-16T18:28:52;11.73;;;5.13;;
55633;SDS011;41504;53.162;6.788;2022-10-16T18:31:20;10.75;;;5.70;;
55633;SDS011;41504;53.162;6.788;2022-10-16T18:33:50;11.75;;;5.10;;
55633;SDS011;41504;53.162;6.788;2022-10-16T18:36:17;10.48;;;5.00;;
55633;SDS011;41504;53.162;6.788;2022-10-16T18:38:44;12.30;;;4.72;;
55633;SDS011;41504;53.162;6.788;2022-10-16T18:41:10;11.27;;;4.90;;
55633;SDS011;41504;53.162;6.788;2022-10-16T18:43:37;11.43;;;4.97;;
55633;SDS011;41504;53.162;6.788;2022-10-16T18:46:04;14.55;;;4.95;;
55633;SDS011;41504;53.162;6.788;2022-10-16T18:48:50;11.73;;;4.68;;
55633;SDS011;41504;53.162;6.788;2022-10-16T18:53:56;9.30;;;4.68;;
55633;SDS011;41504;53.162;6.788;2022-10-16T18:56:28;16.60;;;5.18;;
55633;SDS011;41504;53.162;6.788;2022-10-16T18:58:54;12.98;;;4.88;;
55633;SDS011;41504;53.162;6.788;2022-10-16T19:01:23;10.60;;;4.80;;
55633;SDS011;41504;53.162;6.788;2022-10-16T19:03:57;10.63;;;4.25;;
55633;SDS011;41504;53.162;6.788;2022-10-16T19:06:27;10.40;;;4.90;;
55633;SDS011;41504;53.162;6.788;2022-10-16T19:08:55;10.90;;;4.65;;
55633;SDS011;41504;53.162;6.788;2022-10-16T19:11:24;9.50;;;4.50;;
55633;SDS011;41504;53.162;6.788;2022-10-16T19:13:55;10.27;;;4.45;;
55633;SDS011;41504;53.162;6.788;2022-10-16T19:16:25;12.50;;;4.55;;
55633;SDS011;41504;53.162;6.788;2022-10-16T19:18:54;11.55;;;4.95;;
55633;SDS011;41504;53.162;6.788;2022-10-16T19:21:21;11.50;;;4.63;;
55633;SDS011;41504;53.162;6.788;2022-10-16T19:23:58;13.10;;;5.65;;
55633;SDS011;41504;53.162;6.788;2022-10-16T19:26:29;14.48;;;6.30;;
55633;SDS011;41504;53.162;6.788;2022-10-16T19:28:57;15.40;;;7.18;;
55633;SDS011;41504;53.162;6.788;2022-10-16T19:31:25;14.02;;;7.05;;
55633;SDS011;41504;53.162;6.788;2022-10-16T19:33:55;16.23;;;5.72;;
55633;SDS011;41504;53.162;6.788;2022-10-16T19:36:23;11.63;;;5.82;;
55633;SDS011;41504;53.162;6.788;2022-10-16T19:38:58;12.93;;;5.82;;
55633;SDS011;41504;53.162;6.788;2022-10-16T19:41:26;11.35;;;5.22;;
55633;SDS011;41504;53.162;6.788;2022-10-16T19:43:58;17.60;;;5.88;;
55633;SDS011;41504;53.162;6.788;2022-10-16T19:46:28;14.25;;;5.85;;
55633;SDS011;41504;53.162;6.788;2022-10-16T19:48:56;11.55;;;5.53;;
55633;SDS011;41504;53.162;6.788;2022-10-16T19:51:23;13.70;;;5.97;;
55633;SDS011;41504;53.162;6.788;2022-10-16T19:53:52;13.60;;;5.63;;
55633;SDS011;41504;53.162;6.788;2022-10-16T19:56:23;12.23;;;5.78;;
55633;SDS011;41504;53.162;6.788;2022-10-16T19:58:50;13.15;;;6.15;;
55633;SDS011;41504;53.162;6.788;2022-10-16T20:01:18;12.95;;;5.85;;
55633;SDS011;41504;53.162;6.788;2022-10-16T20:03:44;14.20;;;7.38;;
55633;SDS011;41504;53.162;6.788;2022-10-16T20:06:11;19.33;;;8.10;;
55633;SDS011;41504;53.162;6.788;2022-10-16T20:08:38;15.02;;;6.85;;
55633;SDS011;41504;53.162;6.788;2022-10-16T20:11:08;13.75;;;6.30;;
55633;SDS011;41504;53.162;6.788;2022-10-16T20:13:36;16.13;;;6.97;;
55633;SDS011;41504;53.162;6.788;2022-10-16T20:16:02;14.43;;;6.68;;
55633;SDS011;41504;53.162;6.788;2022-10-16T20:18:29;12.55;;;7.47;;
55633;SDS011;41504;53.162;6.788;2022-10-16T20:20:58;16.23;;;7.07;;
55633;SDS011;41504;53.162;6.788;2022-10-16T20:23:24;13.60;;;7.85;;
55633;SDS011;41504;53.162;6.788;2022-10-16T20:25:50;15.75;;;7.30;;
55633;SDS011;41504;53.162;6.788;2022-10-16T20:28:18;14.02;;;7.40;;
55633;SDS011;41504;53.162;6.788;2022-10-16T20:30:45;13.18;;;5.82;;
55633;SDS011;41504;53.162;6.788;2022-10-16T20:33:12;14.63;;;6.47;;
55633;SDS011;41504;53.162;6.788;2022-10-16T20:35:43;13.15;;;6.35;;
55633;SDS011;41504;53.162;6.788;2022-10-16T20:38:10;13.43;;;5.88;;
55633;SDS011;41504;53.162;6.788;2022-10-16T20:40:38;13.90;;;6.53;;
55633;SDS011;41504;53.162;6.788;2022-10-16T20:43:05;10.18;;;6.32;;
55633;SDS011;41504;53.162;6.788;2022-10-16T20:45:35;14.20;;;6.22;;
55633;SDS011;41504;53.162;6.788;2022-10-16T20:48:04;12.00;;;6.85;;
55633;SDS011;41504;53.162;6.788;2022-10-16T20:50:48;13.55;;;6.35;;
55633;SDS011;41504;53.162;6.788;2022-10-16T20:53:13;17.25;;;7.22;;
55633;SDS011;41504;53.162;6.788;2022-10-16T20:55:39;18.48;;;7.70;;
55633;SDS011;41504;53.162;6.788;2022-10-16T20:58:05;15.18;;;7.97;;
55633;SDS011;41504;53.162;6.788;2022-10-16T21:00:31;13.85;;;8.15;;
55633;SDS011;41504;53.162;6.788;2022-10-16T21:02:56;14.10;;;7.82;;
55633;SDS011;41504;53.162;6.788;2022-10-16T21:05:22;17.45;;;7.82;;
55633;SDS011;41504;53.162;6.788;2022-10-16T21:07:49;13.95;;;7.20;;
55633;SDS011;41504;53.162;6.788;2022-10-16T21:10:17;13.75;;;6.55;;
55633;SDS011;41504;53.162;6.788;2022-10-16T21:12:44;14.98;;;6.07;;
55633;SDS011;41504;53.162;6.788;2022-10-16T21:15:09;12.45;;;5.88;;
55633;SDS011;41504;53.162;6.788;2022-10-16T21:17:40;14.35;;;6.05;;
55633;SDS011;41504;53.162;6.788;2022-10-16T21:20:06;9.30;;;5.93;;
55633;SDS011;41504;53.162;6.788;2022-10-16T21:22:32;12.27;;;5.47;;
55633;SDS011;41504;53.162;6.788;2022-10-16T21:24:57;13.02;;;5.93;;
55633;SDS011;41504;53.162;6.788;2022-10-16T21:27:23;10.85;;;5.43;;
55633;SDS011;41504;53.162;6.788;2022-10-16T21:29:51;12.10;;;5.00;;
55633;SDS011;41504;53.162;6.788;2022-10-16T21:32:18;11.57;;;5.15;;
55633;SDS011;41504;53.162;6.788;2022-10-16T21:34:45;11.18;;;5.20;;
55633;SDS011;41504;53.162;6.788;2022-10-16T21:37:11;12.25;;;4.88;;
55633;SDS011;41504;53.162;6.788;2022-10-16T21:39:40;11.77;;;5.15;;
55633;SDS011;41504;53.162;6.788;2022-10-16T21:42:06;12.63;;;5.20;;
55633;SDS011;41504;53.162;6.788;2022-10-16T21:44:31;12.93;;;4.95;;
55633;SDS011;41504;53.162;6.788;2022-10-16T21:46:57;13.32;;;5.28;;
55633;SDS011;41504;53.162;6.788;2022-10-16T21:49:23;11.93;;;5.47;;
55633;SDS011;41504;53.162;6.788;2022-10-16T21:51:49;9.32;;;4.70;;
55633;SDS011;41504;53.162;6.788;2022-10-16T21:54:23;9.85;;;5.13;;
55633;SDS011;41504;53.162;6.788;2022-10-16T21:56:48;12.30;;;4.90;;
55633;SDS011;41504;53.162;6.788;2022-10-16T21:59:14;11.43;;;5.40;;
55633;SDS011;41504;53.162;6.788;2022-10-16T22:01:43;12.32;;;5.78;;
55633;SDS011;41504;53.162;6.788;2022-10-16T22:04:12;10.07;;;5.57;;
55633;SDS011;41504;53.162;6.788;2022-10-16T22:06:39;11.13;;;6.00;;
55633;SDS011;41504;53.162;6.788;2022-10-16T22:09:09;9.50;;;5.60;;
55633;SDS011;41504;53.162;6.788;2022-10-16T22:11:38;12.27;;;5.45;;
55633;SDS011;41504;53.162;6.788;2022-10-16T22:14:08;12.40;;;5.50;;
55633;SDS011;41504;53.162;6.788;2022-10-16T22:16:37;9.13;;;5.13;;
55633;SDS011;41504;53.162;6.788;2022-10-16T22:19:04;10.90;;;5.22;;
55633;SDS011;41504;53.162;6.788;2022-10-16T22:21:34;10.15;;;5.10;;
55633;SDS011;41504;53.162;6.788;2022-10-16T22:24:03;10.73;;;5.32;;
55633;SDS011;41504;53.162;6.788;2022-10-16T22:26:30;9.68;;;5.00;;
55633;SDS011;41504;53.162;6.788;2022-10-16T22:28:56;12.18;;;5.07;;
55633;SDS011;41504;53.162;6.788;2022-10-16T22:31:22;11.68;;;5.10;;
55633;SDS011;41504;53.162;6.788;2022-10-16T22:33:58;12.02;;;4.88;;
55633;SDS011;41504;53.162;6.788;2022-10-16T22:36:25;9.93;;;5.13;;
55633;SDS011;41504;53.162;6.788;2022-10-16T22:38:51;12.48;;;4.93;;
55633;SDS011;41504;53.162;6.788;2022-10-16T22:41:18;11.90;;;4.57;;
55633;SDS011;41504;53.162;6.788;2022-10-16T22:43:44;12.77;;;4.55;;
55633;SDS011;41504;53.162;6.788;2022-10-16T22:46:16;14.48;;;4.90;;
55633;SDS011;41504;53.162;6.788;2022-10-16T22:48:46;12.52;;;5.22;;
55633;SDS011;41504;53.162;6.788;2022-10-16T22:51:12;12.52;;;4.78;;
55633;SDS011;41504;53.162;6.788;2022-10-16T22:53:39;13.52;;;4.70;;
55633;SDS011;41504;53.162;6.788;2022-10-16T22:56:05;15.52;;;4.90;;
55633;SDS011;41504;53.162;6.788;2022-10-16T22:58:31;12.23;;;4.88;;
55633;SDS011;41504;53.162;6.788;2022-10-16T23:00:57;14.35;;;4.50;;
55633;SDS011;41504;53.162;6.788;2022-10-16T23:03:23;10.65;;;4.22;;
55633;SDS011;41504;53.162;6.788;2022-10-16T23:05:52;10.20;;;4.43;;
55633;SDS011;41504;53.162;6.788;2022-10-16T23:08:18;18.17;;;8.70;;
55633;SDS011;41504;53.162;6.788;2022-10-16T23:10:45;31.15;;;21.30;;
55633;SDS011;41504;53.162;6.788;2022-10-16T23:13:14;37.38;;;27.63;;
55633;SDS011;41504;53.162;6.788;2022-10-16T23:15:40;39.92;;;27.92;;
55633;SDS011;41504;53.162;6.788;2022-10-16T23:18:09;37.30;;;24.98;;
55633;SDS011;41504;53.162;6.788;2022-10-16T23:20:39;30.10;;;18.83;;
55633;SDS011;41504;53.162;6.788;2022-10-16T23:23:05;17.92;;;11.40;;
55633;SDS011;41504;53.162;6.788;2022-10-16T23:25:32;13.20;;;7.50;;
55633;SDS011;41504;53.162;6.788;2022-10-16T23:27:57;11.38;;;6.10;;
55633;SDS011;41504;53.162;6.788;2022-10-16T23:30:23;12.18;;;5.07;;
55633;SDS011;41504;53.162;6.788;2022-10-16T23:32:49;10.35;;;4.80;;
55633;SDS011;41504;53.162;6.788;2022-10-16T23:35:14;10.48;;;4.65;;
55633;SDS011;41504;53.162;6.788;2022-10-16T23:37:40;9.05;;;3.92;;
55633;SDS011;41504;53.162;6.788;2022-10-16T23:40:09;11.40;;;4.20;;
55633;SDS011;41504;53.162;6.788;2022-10-16T23:42:35;10.13;;;4.50;;
55633;SDS011;41504;53.162;6.788;2022-10-16T23:45:00;8.80;;;3.75;;
55633;SDS011;41504;53.162;6.788;2022-10-16T23:47:26;11.15;;;4.10;;
55633;SDS011;41504;53.162;6.788;2022-10-16T23:49:52;9.65;;;3.80;;
55633;SDS011;41504;53.162;6.788;2022-10-16T23:52:17;12.43;;;3.88;;
55633;SDS011;41504;53.162;6.788;2022-10-16T23:54:43;12.52;;;4.20;;
55633;SDS011;41504;53.162;6.788;2022-10-16T23:57:09;10.40;;;3.63;;
55633;SDS011;41504;53.162;6.788;2022-10-16T23:59:34;12.00;;;4.13;;
